Time;durP1;ratioP1;P1;durP2;ratioP2;P2;SDS_P1;SDS_P2;PMS_P1;PMS_P2;Temp;Humidity;BMP_temperature;BMP_pressure;BME280_temperature;BME280_humidity;BME280_pressure;Samples;Min_cycle;Max_cycle;Signal;HPM_P1;HPM_P2
2022/05/09 00:00:50;;;;;;;7.63;2.63;;;;;;;-141.13;100.00;65498.22;10421835;28;20225;-65
2022/05/09 00:05:53;;;;;;;6.47;2.80;;;;;;;-141.13;100.00;65498.22;10421509;28;20577;-66
2022/05/09 00:10:57;;;;;;;8.13;2.90;;;;;;;-141.13;100.00;65498.22;10420278;28;20240;-68
2022/05/09 00:16:05;;;;;;;7.20;2.97;;;;;;;-141.13;100.00;65498.22;10421200;28;20217;-66
2022/05/09 00:21:08;;;;;;;7.13;3.13;;;;;;;-141.13;100.00;65498.22;10420993;28;20225;-68
2022/05/09 00:26:12;;;;;;;7.30;3.10;;;;;;;-141.13;100.00;65498.22;10420813;28;20329;-72
2022/05/09 00:31:16;;;;;;;9.80;3.10;;;;;;;-141.13;100.00;65498.22;10421291;28;20233;-68
2022/05/09 00:36:21;;;;;;;10.47;3.10;;;;;;;-141.13;100.00;65498.22;10420544;28;20217;-68
2022/05/09 00:41:31;;;;;;;7.90;3.40;;;;;;;-141.13;100.00;65498.22;10420493;28;20318;-67
2022/05/09 00:46:37;;;;;;;7.90;3.20;;;;;;;-141.13;100.00;65498.22;10420592;28;20223;-67
2022/05/09 00:51:43;;;;;;;6.83;3.00;;;;;;;-141.13;100.00;65498.22;10420052;28;20229;-67
2022/05/09 00:56:51;;;;;;;9.33;2.77;;;;;;;-141.13;100.00;65498.22;10419725;28;20676;-68
2022/05/09 01:01:55;;;;;;;9.30;3.27;;;;;;;-141.13;100.00;65498.22;10421603;28;20221;-70
2022/05/09 01:06:59;;;;;;;7.00;2.60;;;;;;;-141.13;100.00;65498.22;10419388;28;20282;-71
2022/05/09 01:12:04;;;;;;;8.23;2.57;;;;;;;-141.13;100.00;65498.22;10419142;28;20225;-71
2022/05/09 01:17:10;;;;;;;8.27;2.77;;;;;;;-141.13;100.00;65498.22;10419093;28;20217;-70
2022/05/09 01:22:24;;;;;;;7.17;2.80;;;;;;;-141.13;100.00;65498.22;10419206;28;20221;-72
2022/05/09 01:27:27;;;;;;;6.03;2.50;;;;;;;-141.13;100.00;65498.22;10419238;28;20265;-70
2022/05/09 01:32:35;;;;;;;7.23;2.50;;;;;;;-141.13;100.00;65498.22;10418580;28;20677;-67
2022/05/09 01:37:48;;;;;;;7.43;3.30;;;;;;;-141.13;100.00;65498.22;10418499;28;20217;-68
2022/05/09 01:42:51;;;;;;;7.00;3.47;;;;;;;-141.13;100.00;65498.22;10418569;28;20235;-68
2022/05/09 01:53:17;;;;;;;7.33;2.80;;;;;;;-141.13;100.00;65498.22;10417914;28;20220;-68
2022/05/09 01:58:20;;;;;;;6.17;2.60;;;;;;;-141.13;100.00;65498.22;10417783;28;20270;-68
2022/05/09 02:03:24;;;;;;;7.93;2.60;;;;;;;-141.13;100.00;65498.22;10418081;28;20217;-68
2022/05/09 02:08:28;;;;;;;6.20;3.10;;;;;;;-141.13;100.00;65498.22;10417614;28;20227;-69
2022/05/09 02:13:33;;;;;;;5.77;2.80;;;;;;;-141.13;100.00;65498.22;10417666;28;20229;-70
2022/05/09 02:18:36;;;;;;;10.40;3.60;;;;;;;-141.13;100.00;65498.22;10417612;28;20228;-69
2022/05/09 02:23:42;;;;;;;8.03;3.20;;;;;;;-141.13;100.00;65498.22;10417369;28;20223;-68
2022/05/09 02:28:45;;;;;;;8.80;3.10;;;;;;;-141.13;100.00;65498.22;10417634;28;20221;-64
2022/05/09 02:33:49;;;;;;;5.77;2.87;;;;;;;-141.13;100.00;65498.22;10419721;28;20231;-68
2022/05/09 02:38:53;;;;;;;6.50;2.57;;;;;;;-141.13;100.00;65498.22;10425960;28;20219;-65
2022/05/09 02:43:57;;;;;;;8.10;2.90;;;;;;;-141.13;100.00;65498.22;10425085;28;20225;-65
2022/05/09 02:49:02;;;;;;;9.63;2.77;;;;;;;-141.13;100.00;65498.22;10425012;28;20218;-67
2022/05/09 02:54:07;;;;;;;7.47;2.47;;;;;;;-141.13;100.00;65498.22;10424772;28;20235;-67
2022/05/09 02:59:10;;;;;;;5.53;2.57;;;;;;;-141.13;100.00;65498.22;10424796;28;20243;-65
2022/05/09 03:09:35;;;;;;;5.50;2.77;;;;;;;-141.13;100.00;65498.22;10423939;28;20243;-67
2022/05/09 03:14:39;;;;;;;6.17;2.40;;;;;;;-141.13;100.00;65498.22;10424084;28;20217;-65
2022/05/09 03:19:43;;;;;;;5.83;2.40;;;;;;;-141.13;100.00;65498.22;10423978;28;20457;-65
2022/05/09 03:24:48;;;;;;;5.47;2.07;;;;;;;-141.13;100.00;65498.22;10423281;28;20248;-64
2022/05/09 03:29:51;;;;;;;6.07;2.33;;;;;;;-141.13;100.00;65498.22;10417735;28;20221;-67
2022/05/09 03:34:55;;;;;;;5.33;2.10;;;;;;;-141.13;100.00;65498.22;10383622;28;20559;-68
2022/05/09 03:39:59;;;;;;;5.77;2.27;;;;;;;-141.13;100.00;65498.22;10382203;28;20225;-69
2022/05/09 03:45:04;;;;;;;6.00;2.30;;;;;;;-141.13;100.00;65498.22;10381006;28;20305;-71
2022/05/09 03:50:09;;;;;;;4.23;1.77;;;;;;;-141.13;100.00;65498.22;10381731;28;20280;-67
2022/05/09 03:55:14;;;;;;;6.37;2.03;;;;;;;-141.13;100.00;65498.22;10381962;28;20218;-70
2022/05/09 04:00:19;;;;;;;5.70;2.00;;;;;;;-141.13;100.00;65498.22;10381552;28;20230;-69
2022/05/09 04:05:22;;;;;;;6.77;2.17;;;;;;;-141.13;100.00;65498.22;10381376;28;20229;-69
2022/05/09 04:10:29;;;;;;;23.70;12.63;;;;;;;-141.13;100.00;65498.22;10380870;28;20229;-67
2022/05/09 04:20:53;;;;;;;5.10;2.10;;;;;;;-141.13;100.00;65498.22;10380563;28;20243;-66
2022/05/09 04:25:58;;;;;;;5.83;2.13;;;;;;;-141.13;100.00;65498.22;10380808;28;20248;-69
2022/05/09 04:31:01;;;;;;;4.67;2.00;;;;;;;-141.13;100.00;65498.22;10379919;28;20232;-68
2022/05/09 04:36:05;;;;;;;5.33;2.17;;;;;;;-141.13;100.00;65498.22;10379987;28;20590;-68
2022/05/09 04:41:13;;;;;;;6.17;1.80;;;;;;;-141.13;100.00;65498.22;10379602;28;20228;-68
2022/05/09 04:46:17;;;;;;;7.87;2.83;;;;;;;-141.13;100.00;65498.22;10379680;28;20222;-67
2022/05/09 04:51:22;;;;;;;4.60;1.80;;;;;;;-141.13;100.00;65498.22;10379245;28;20229;-66
2022/05/09 04:56:26;;;;;;;4.23;1.60;;;;;;;-141.13;100.00;65498.22;10378705;28;20214;-69
2022/05/09 05:01:30;;;;;;;11.83;2.07;;;;;;;-141.13;100.00;65498.22;10378748;28;20229;-66
2022/05/09 05:06:33;;;;;;;5.93;1.87;;;;;;;-141.13;100.00;65498.22;10378816;28;20228;-65
2022/05/09 05:11:38;;;;;;;4.67;1.37;;;;;;;-141.13;100.00;65498.22;10379846;28;20222;-67
2022/05/09 05:22:05;;;;;;;5.23;1.43;;;;;;;-141.13;100.00;65498.22;10418763;28;20225;-66
2022/05/09 05:27:10;;;;;;;5.90;1.30;;;;;;;-141.13;100.00;65498.22;10418367;28;20247;-67
2022/05/09 05:32:14;;;;;;;6.17;1.27;;;;;;;-141.13;100.00;65498.22;10418789;28;20251;-70
2022/05/09 05:37:18;;;;;;;6.30;1.30;;;;;;;-141.13;100.00;65498.22;10418419;28;20218;-70
2022/05/09 05:42:23;;;;;;;3.23;0.93;;;;;;;-141.13;100.00;65498.22;10418283;28;20669;-65
2022/05/09 05:47:26;;;;;;;5.63;1.23;;;;;;;-141.13;100.00;65498.22;10419141;28;20600;-65
2022/05/09 05:52:31;;;;;;;5.93;1.50;;;;;;;-141.13;100.00;65498.22;10418494;28;20723;-69
2022/05/09 05:57:38;;;;;;;3.90;1.37;;;;;;;-141.13;100.00;65498.22;10418335;28;20218;-70
2022/05/09 06:02:42;;;;;;;2.67;0.97;;;;;;;-141.13;100.00;65498.22;10417799;28;20213;-72
2022/05/09 06:07:46;;;;;;;7.47;1.20;;;;;;;-141.13;100.00;65498.22;10418822;28;20213;-67
2022/05/09 06:12:51;;;;;;;5.80;1.83;;;;;;;-141.13;100.00;65498.22;10425991;28;20236;-73
2022/05/09 06:17:54;;;;;;;4.60;1.17;;;;;;;-141.13;100.00;65498.22;10426317;28;20557;-70
2022/05/09 06:22:59;;;;;;;3.83;1.27;;;;;;;-141.13;100.00;65498.22;10424835;28;20282;-69
2022/05/09 06:28:05;;;;;;;4.87;1.33;;;;;;;-141.13;100.00;65498.22;10424163;28;20708;-64
2022/05/09 06:33:10;;;;;;;4.17;1.30;;;;;;;-141.13;100.00;65498.22;10415693;28;20222;-73
2022/05/09 06:38:15;;;;;;;3.63;1.37;;;;;;;-141.13;100.00;65498.22;10402579;28;20540;-67
2022/05/09 06:43:22;;;;;;;5.10;1.33;;;;;;;-141.13;100.00;65498.22;10405410;28;20214;-67
2022/05/09 06:48:25;;;;;;;5.43;1.20;;;;;;;-141.13;100.00;65498.22;10404929;28;20232;-70
2022/05/09 06:53:28;;;;;;;5.43;1.43;;;;;;;-141.13;100.00;65498.22;10404775;28;20213;-71
2022/05/09 06:58:35;;;;;;;5.17;1.50;;;;;;;-141.13;100.00;65498.22;10404055;28;20202;-66
2022/05/09 07:03:39;;;;;;;4.37;1.00;;;;;;;-141.13;100.00;65498.22;10401962;28;20190;-68
2022/05/09 07:08:42;;;;;;;8.37;1.50;;;;;;;-141.13;100.00;65498.22;10403835;28;20645;-68
2022/05/09 07:13:47;;;;;;;7.57;2.43;;;;;;;-141.13;100.00;65498.22;10409542;28;20224;-66
2022/05/09 07:18:50;;;;;;;6.27;1.40;;;;;;;-141.13;100.00;65498.22;10406105;28;20192;-70
2022/05/09 07:23:53;;;;;;;8.43;1.10;;;;;;;-141.13;100.00;65498.22;10401640;28;20748;-71
2022/05/09 07:28:58;;;;;;;5.80;1.20;;;;;;;-141.13;100.00;65498.22;10403535;28;20194;-68
2022/05/09 07:34:01;;;;;;;4.53;1.00;;;;;;;-141.13;100.00;65498.22;10402404;28;20214;-68
2022/05/09 07:39:05;;;;;;;5.53;1.10;;;;;;;-141.13;100.00;65498.22;10401024;28;20186;-68
2022/05/09 07:44:09;;;;;;;4.50;0.90;;;;;;;-141.13;100.00;65498.22;10403401;28;20533;-67
2022/05/09 07:49:13;;;;;;;3.60;0.80;;;;;;;-141.13;100.00;65498.22;10402811;28;20578;-66
2022/05/09 07:54:16;;;;;;;5.82;1.35;;;;;;;-141.13;100.00;65498.22;10405531;28;20433;-70
2022/05/09 07:59:21;;;;;;;7.00;1.37;;;;;;;-141.13;100.00;65498.22;10407836;28;20213;-71
2022/05/09 08:04:24;;;;;;;4.00;1.00;;;;;;;-141.13;100.00;65498.22;10401400;28;20214;-70
2022/05/09 08:09:28;;;;;;;4.10;0.97;;;;;;;-141.13;100.00;65498.22;10407076;28;20224;-66
2022/05/09 08:14:33;;;;;;;4.20;1.10;;;;;;;-141.13;100.00;65498.22;10400792;28;20636;-71
2022/05/09 08:19:38;;;;;;;4.83;1.27;;;;;;;-141.13;100.00;65498.22;10399959;28;20671;-66
2022/05/09 08:24:41;;;;;;;4.10;1.43;;;;;;;-141.13;100.00;65498.22;10400300;28;20256;-67
2022/05/09 08:29:46;;;;;;;3.53;0.80;;;;;;;-141.13;100.00;65498.22;10398284;28;20220;-69
2022/05/09 08:34:51;;;;;;;4.20;0.90;;;;;;;-141.13;100.00;65498.22;10399617;28;20224;-67
2022/05/09 08:39:54;;;;;;;5.57;0.80;;;;;;;-141.13;100.00;65498.22;10399181;28;20217;-72
2022/05/09 08:45:12;;;;;;;4.37;1.00;;;;;;;-141.13;100.00;65498.22;10399082;28;20239;-65
2022/05/09 08:50:23;;;;;;;490.67;139.30;;;;;;;-141.13;100.00;65498.22;10399946;28;20208;-67
2022/05/09 08:55:32;;;;;;;28.80;8.53;;;;;;;-141.13;100.00;65498.22;10397679;28;20554;-71
2022/05/09 09:00:38;;;;;;;9.33;2.90;;;;;;;-141.13;100.00;65498.22;10399188;28;21465;-67
2022/05/09 09:05:46;;;;;;;15.77;8.07;;;;;;;-141.13;100.00;65498.22;10383570;28;20225;-65
2022/05/09 09:11:01;;;;;;;3.10;1.03;;;;;;;-141.13;100.00;65498.22;10396348;28;20557;-63
2022/05/09 09:16:18;;;;;;;5.40;0.83;;;;;;;-141.13;100.00;65498.22;10397041;28;20213;-67
2022/05/09 09:21:30;;;;;;;3.17;1.00;;;;;;;-141.13;100.00;65498.22;10398092;28;20214;-65
2022/05/09 09:26:39;;;;;;;4.03;0.97;;;;;;;-141.13;100.00;65498.22;10410859;28;20315;-68
2022/05/09 09:31:49;;;;;;;4.53;1.10;;;;;;;-141.13;100.00;65498.22;10407538;28;20443;-59
2022/05/09 09:37:09;;;;;;;55.57;36.90;;;;;;;-141.13;100.00;65498.22;10377407;28;20512;-72
2022/05/09 09:42:13;;;;;;;4.83;1.10;;;;;;;-141.13;100.00;65498.22;10387777;28;20645;-69
2022/05/09 09:47:25;;;;;;;19.37;4.67;;;;;;;-141.13;100.00;65498.22;10417500;28;20221;-68
2022/05/09 09:52:51;;;;;;;3.40;0.93;;;;;;;-141.13;100.00;65498.22;10390963;28;20229;-70
2022/05/09 09:57:59;;;;;;;3.63;0.90;;;;;;;-141.13;100.00;65498.22;10417642;28;20221;-68
2022/05/09 10:03:19;;;;;;;9.73;3.37;;;;;;;-141.13;100.00;65498.22;10417350;28;20268;-65
2022/05/09 10:08:29;;;;;;;3.83;1.30;;;;;;;-141.13;100.00;65498.22;10417815;28;20300;-71
2022/05/09 10:13:39;;;;;;;3.97;1.40;;;;;;;-141.13;100.00;65498.22;10417960;28;20224;-67
2022/05/09 10:18:44;;;;;;;;;;;;;;;-141.13;100.00;65498.22;10418371;28;20052;-71
2022/05/09 10:29:23;;;;;;;;;;;;;;;-141.13;100.00;65498.22;10417334;28;19921;-74
2022/05/09 10:34:31;;;;;;;;;;;;;;;-141.13;100.00;65498.22;10417246;28;19921;-68
2022/05/09 10:39:35;;;;;;;;;;;;;;;-141.13;100.00;65498.22;10417778;28;20349;-69
2022/05/09 10:44:43;;;;;;;;;;;;;;;-141.13;100.00;65498.22;10417429;28;19949;-70
2022/05/09 10:49:51;;;;;;;;;;;;;;;-141.13;100.00;65498.22;10417881;28;19921;-70
2022/05/09 10:54:57;;;;;;;;;;;;;;;-141.13;100.00;65498.22;10419556;28;19931;-70
2022/05/09 11:00:04;;;;;;;;;;;;;;;-141.13;100.00;65498.22;10424981;28;19944;-68
2022/05/09 11:05:08;;;;;;;;;;;;;;;-141.13;100.00;65498.22;10424461;28;20331;-69
2022/05/09 11:10:19;;;;;;;;;;;;;;;-141.13;100.00;65498.22;10424521;28;19928;-69
2022/05/09 11:15:30;;;;;;;;;;;;;;;-141.13;100.00;65498.22;10423715;28;19921;-69
2022/05/09 11:20:39;;;;;;;;;;;;;;;-141.13;100.00;65498.22;10423994;28;19929;-70
2022/05/09 11:25:48;;;;;;;;;;;;;;;-141.13;100.00;65498.22;10423661;28;19947;-68
2022/05/09 11:30:53;;;;;;;;;;;;;;;-141.13;100.00;65498.22;10423907;28;20325;-65
2022/05/09 11:36:01;;;;;;;;;;;;;;;-141.13;100.00;65498.22;10423699;28;19921;-70
2022/05/09 11:41:11;;;;;;;;;;;;;;;-141.13;100.00;65498.22;10422386;28;19929;-70
2022/05/09 11:46:29;;;;;;;;;;;;;;;-141.13;100.00;65498.22;10423178;28;19928;-69
2022/05/09 11:51:40;;;;;;;;;;;;;;;-141.13;100.00;65498.22;10423558;28;19920;-68
2022/05/09 11:56:46;;;;;;;;;;;;;;;-141.13;100.00;65498.22;10421574;28;19963;-67
2022/05/09 12:01:53;;;;;;;;;;;;;;;-141.13;100.00;65498.22;10422576;28;19921;-69
2022/05/09 12:06:58;;;;;;;;;;;;;;;-141.13;100.00;65498.22;10420982;28;20012;-68
2022/05/09 12:12:01;;;;;;;;;;;;;;;-141.13;100.00;65498.22;10422828;28;19931;-70
2022/05/09 12:17:17;;;;;;;;;;;;;;;-141.13;100.00;65498.22;10422236;28;20253;-70
2022/05/09 12:22:47;;;;;;;;;;;;;;;-141.13;100.00;65498.22;10421688;28;19951;-68
2022/05/09 12:28:03;;;;;;;;;;;;;;;-141.13;100.00;65498.22;10421253;28;19929;-72
2022/05/09 12:33:14;;;;;;;;;;;;;;;-141.13;100.00;65498.22;10421269;28;19932;-66
2022/05/09 12:38:21;;;;;;;;;;;;;;;-141.13;100.00;65498.22;10420951;28;20016;-70
2022/05/09 12:43:29;;;;;;;;;;;;;;;-141.13;100.00;65498.22;10422053;28;20266;-66
2022/05/09 12:48:32;;;;;;;;;;;;;;;-141.13;100.00;65498.22;10420618;28;19954;-68
2022/05/09 12:53:36;;;;;;;;;;;;;;;-141.13;100.00;65498.22;10420198;28;19925;-67
2022/05/09 12:58:48;;;;;;;;;;;;;;;-141.13;100.00;65498.22;10420241;28;20338;-68
2022/05/09 13:03:53;;;;;;;;;;;;;;;-141.13;100.00;65498.22;10420378;28;19925;-69
2022/05/09 13:08:56;;;;;;;;;;;;;;;-141.13;100.00;65498.22;10420162;28;20266;-71
2022/05/09 13:14:07;;;;;;;;;;;;;;;-141.13;100.00;65498.22;10419826;28;19921;-71
2022/05/09 13:19:15;;;;;;;;;;;;;;;-141.13;100.00;65498.22;10418406;28;20019;-70
2022/05/09 13:24:21;;;;;;;;;;;;;;;-141.13;100.00;65498.22;10419271;28;19931;-66
2022/05/09 13:29:29;;;;;;;;;;;;;;;-141.13;100.00;65498.22;10418717;28;19921;-69
2022/05/09 13:34:33;;;;;;;;;;;;;;;-141.13;100.00;65498.22;10418735;28;19998;-67
2022/05/09 13:39:38;;;;;;;;;;;;;;;-141.13;100.00;65498.22;10388206;28;20270;-69
2022/05/09 13:44:46;;;;;;;;;;;;;;;-141.13;100.00;65498.22;10404260;28;19921;-68
2022/05/09 13:49:50;;;;;;;;;;;;;;;-141.13;100.00;65498.22;10411386;28;19932;-66
2022/05/09 13:54:55;;;;;;;;;;;;;;;-141.13;100.00;65498.22;10417970;28;19921;-68
2022/05/09 14:00:02;;;;;;;;;;;;;;;-141.13;100.00;65498.22;10381159;28;19925;-71
2022/05/09 14:05:08;;;;;;;;;;;;;;;-141.13;100.00;65498.22;10414692;28;20364;-68
2022/05/09 14:10:14;;;;;;;;;;;;;;;-141.13;100.00;65498.22;10419303;28;19931;-68
2022/05/09 14:15:19;;;;;;;;;;;;;;;-141.13;100.00;65498.22;10417604;28;20006;-68
2022/05/09 14:20:26;;;;;;;;;;;;;;;-141.13;100.00;65498.22;10418242;28;20399;-69
2022/05/09 14:30:52;;;;;;;;;;;;;;;-141.13;100.00;65498.22;10421517;28;19929;-70
2022/05/09 14:35:56;;;;;;;;;;;;;;;-141.13;100.00;65498.22;10426035;28;19956;-70
2022/05/09 14:41:36;;;;;;;;;;;;;;;-141.13;100.00;65498.22;10425799;28;19999;-67
2022/05/09 14:46:41;;;;;;;;;;;;;;;-141.13;100.00;65498.22;10424867;28;19921;-71
2022/05/09 14:51:54;;;;;;;;;;;;;;;-141.13;100.00;65498.22;10425359;28;19932;-69
2022/05/09 15:02:25;;;;;;;;;;;;;;;-141.13;100.00;65498.22;10404421;28;19982;-69
2022/05/09 15:07:28;;;;;;;;;;;;;;;-141.13;100.00;65498.22;10400388;28;20338;-68
2022/05/09 15:12:33;;;;;;;;;;;;;;;-141.13;100.00;65498.22;10423893;28;19921;-67
2022/05/09 15:17:39;;;;;;;;;;;;;;;-141.13;100.00;65498.22;10423953;28;19921;-66
2022/05/09 15:22:42;;;;;;;;;;;;;;;-141.13;100.00;65498.22;10423985;28;20374;-68
2022/05/09 15:27:46;;;;;;;;;;;;;;;-141.13;100.00;65498.22;10423822;28;20345;-70
2022/05/09 15:32:53;;;;;;;;;;;;;;;-141.13;100.00;65498.22;10424208;28;19921;-67
2022/05/09 15:37:56;;;;;;;;;;;;;;;-141.13;100.00;65498.22;10424151;28;20227;-69
2022/05/09 15:43:03;;;;;;;;;;;;;;;-141.13;100.00;65498.22;10423487;28;19921;-67
2022/05/09 15:48:08;;;;;;;;;;;;;;;-141.13;100.00;65498.22;10423044;28;20253;-71
2022/05/09 15:53:12;;;;;;;;;;;;;;;-141.13;100.00;65498.22;10421376;28;20051;-71
2022/05/09 15:58:15;;;;;;;;;;;;;;;-141.13;100.00;65498.22;10420440;28;19920;-66
2022/05/09 16:03:23;;;;;;;;;;;;;;;-141.13;100.00;65498.22;10422041;28;19921;-72
2022/05/09 16:13:47;;;;;;;;;;;;;;;-141.13;100.00;65498.22;10421768;28;19925;-71
2022/05/09 16:18:52;;;;;;;;;;;;;;;-141.13;100.00;65498.22;10421841;28;20043;-69
2022/05/09 16:23:58;;;;;;;;;;;;;;;-141.13;100.00;65498.22;10421444;28;19932;-69
2022/05/09 16:29:02;;;;;;;;;;;;;;;-141.13;100.00;65498.22;10421644;28;19921;-66
2022/05/09 16:34:09;;;;;;;;;;;;;;;-141.13;100.00;65498.22;10421487;28;19921;-69
2022/05/09 16:39:13;;;;;;;4.77;1.20;;;;;;;-141.13;100.00;65498.22;10420531;28;20377;-65
2022/05/09 16:44:16;;;;;;;6.23;1.67;;;;;;;-141.13;100.00;65498.22;10420772;28;20276;-68
2022/05/09 16:49:21;;;;;;;5.80;1.17;;;;;;;-141.13;100.00;65498.22;10419296;28;20419;-67
